createdAt,value
2022-10-22T00:01:05.620Z,24.00
2022-10-22T00:03:40.108Z,23.60
2022-10-22T00:06:22.577Z,23.00
2022-10-22T00:08:52.084Z,23.00
2022-10-22T00:11:21.275Z,24.90
2022-10-22T00:13:50.573Z,22.60
2022-10-22T00:16:33.169Z,24.80
2022-10-22T00:19:16.122Z,24.80
2022-10-22T00:21:45.112Z,23.40
2022-10-22T00:24:14.510Z,24.30
2022-10-22T00:26:43.250Z,22.80
2022-10-22T00:29:12.474Z,24.60
2022-10-22T00:31:41.358Z,23.40
2022-10-22T00:34:10.358Z,26.30
2022-10-22T00:36:53.840Z,25.10
2022-10-22T00:39:25.781Z,24.20
2022-10-22T00:42:12.914Z,25.70
2022-10-22T00:45:13.218Z,24.00
2022-10-22T00:48:05.459Z,22.00
2022-10-22T00:50:46.033Z,25.30
2022-10-22T00:53:21.688Z,25.10
2022-10-22T00:55:53.790Z,24.80
2022-10-22T00:58:28.486Z,25.30
2022-10-22T01:01:17.240Z,24.60
2022-10-22T01:04:00.511Z,24.40
2022-10-22T01:06:43.101Z,22.80
2022-10-22T01:09:34.072Z,23.10
2022-10-22T01:12:31.030Z,22.80
2022-10-22T01:15:25.544Z,25.00
2022-10-22T01:18:16.599Z,22.70
2022-10-22T01:21:27.032Z,24.90
2022-10-22T01:24:39.582Z,23.90
2022-10-22T01:27:32.890Z,23.80
2022-10-22T01:30:08.504Z,22.50
2022-10-22T01:32:51.896Z,24.00
2022-10-22T01:35:44.132Z,24.90
2022-10-22T01:38:18.910Z,24.10
2022-10-22T01:40:48.577Z,23.50
2022-10-22T01:43:17.765Z,22.90
2022-10-22T01:45:54.480Z,24.00
2022-10-22T01:48:45.970Z,23.80
2022-10-22T01:51:53.497Z,24.20
2022-10-22T01:54:45.497Z,23.20
2022-10-22T01:57:52.313Z,23.50
2022-10-22T02:00:22.328Z,26.80
2022-10-22T02:03:23.661Z,25.40
2022-10-22T02:05:59.590Z,25.00
2022-10-22T02:08:33.535Z,23.30
2022-10-22T02:11:04.372Z,24.50
2022-10-22T02:14:01.984Z,24.30
2022-10-22T02:16:39.874Z,25.00
2022-10-22T02:19:29.023Z,25.80
2022-10-22T02:22:12.276Z,25.30
2022-10-22T02:24:42.085Z,23.80
2022-10-22T02:27:34.057Z,24.40
2022-10-22T02:30:22.382Z,24.90
2022-10-22T02:32:51.042Z,26.80
2022-10-22T02:35:23.928Z,25.80
2022-10-22T02:38:08.105Z,24.30
2022-10-22T02:40:50.757Z,23.50
2022-10-22T02:43:20.101Z,23.90
2022-10-22T02:46:02.547Z,24.70
2022-10-22T02:48:31.911Z,25.60
2022-10-22T02:51:00.786Z,24.60
2022-10-22T02:53:43.333Z,25.00
2022-10-22T02:56:26.129Z,24.70
2022-10-22T02:59:08.559Z,28.30
2022-10-22T03:01:37.333Z,25.20
2022-10-22T03:04:19.860Z,25.00
2022-10-22T03:06:49.569Z,24.40
2022-10-22T03:09:32.486Z,26.80
2022-10-22T03:12:01.103Z,25.50
2022-10-22T03:14:43.629Z,26.20
2022-10-22T03:17:12.842Z,25.90
2022-10-22T03:19:42.470Z,25.60
2022-10-22T03:22:30.330Z,23.60
2022-10-22T03:25:03.369Z,24.60
2022-10-22T03:27:47.389Z,25.60
2022-10-22T03:30:16.495Z,25.90
2022-10-22T03:32:45.569Z,24.90
2022-10-22T03:35:15.050Z,27.40
2022-10-22T03:38:01.419Z,26.90
2022-10-22T03:40:46.692Z,24.30
2022-10-22T03:43:16.600Z,24.60
2022-10-22T03:45:45.625Z,24.90
2022-10-22T03:48:28.019Z,26.50
2022-10-22T03:51:11.165Z,26.30
2022-10-22T03:53:53.802Z,26.00
2022-10-22T03:56:36.317Z,23.90
2022-10-22T03:59:18.819Z,25.30
2022-10-22T04:02:01.283Z,23.20
2022-10-22T04:04:30.695Z,25.10
2022-10-22T04:06:59.903Z,26.30
2022-10-22T04:09:32.760Z,23.50
2022-10-22T04:12:01.876Z,21.70
2022-10-22T04:14:31.036Z,21.60
2022-10-22T04:17:13.455Z,20.30
2022-10-22T04:19:42.473Z,20.50
2022-10-22T04:22:24.909Z,22.40
2022-10-22T04:25:07.583Z,21.10
2022-10-22T04:27:50.190Z,19.20
2022-10-22T04:30:32.824Z,18.60
2022-10-22T04:33:15.266Z,16.60
2022-10-22T04:35:44.296Z,17.70
2022-10-22T04:38:26.644Z,17.40
2022-10-22T04:41:15.569Z,17.30
2022-10-22T04:43:59.161Z,18.10
2022-10-22T04:46:42.170Z,18.30
2022-10-22T04:49:11.106Z,15.80
2022-10-22T04:51:53.609Z,15.30
2022-10-22T04:54:22.924Z,16.00
2022-10-22T04:56:51.877Z,16.50
2022-10-22T04:59:34.208Z,21.80
2022-10-22T05:02:16.567Z,22.20
2022-10-22T05:04:45.893Z,16.60
2022-10-22T05:07:15.180Z,15.50
2022-10-22T05:09:44.114Z,18.20
2022-10-22T05:12:26.535Z,22.40
2022-10-22T05:15:09.878Z,20.40
2022-10-22T05:17:39.046Z,17.40
2022-10-22T05:20:09.244Z,15.80
2022-10-22T05:22:51.699Z,13.70
2022-10-22T05:25:38.715Z,14.00
2022-10-22T05:28:21.075Z,15.30
2022-10-22T05:30:58.733Z,16.00
2022-10-22T05:33:28.700Z,15.00
2022-10-22T05:35:57.773Z,13.80
2022-10-22T05:38:40.797Z,14.80
2022-10-22T05:41:19.104Z,15.30
2022-10-22T05:43:49.099Z,14.60
2022-10-22T05:46:23.215Z,14.70
2022-10-22T05:49:07.251Z,14.90
2022-10-22T05:51:37.641Z,13.60
2022-10-22T05:54:08.342Z,13.70
2022-10-22T05:56:37.655Z,12.90
2022-10-22T05:59:20.153Z,14.00
2022-10-22T06:02:02.750Z,13.90
2022-10-22T06:04:45.261Z,14.60
2022-10-22T06:07:27.733Z,11.20
2022-10-22T06:09:56.698Z,10.50
2022-10-22T06:12:25.855Z,12.20
2022-10-22T06:15:10.523Z,13.00
2022-10-22T06:17:39.540Z,12.80
2022-10-22T06:20:22.106Z,13.00
2022-10-22T06:22:51.203Z,12.10
2022-10-22T06:25:33.961Z,12.30
2022-10-22T06:28:03.799Z,12.40
2022-10-22T06:30:32.802Z,12.80
2022-10-22T06:33:01.647Z,12.70
2022-10-22T06:35:30.795Z,13.40
2022-10-22T06:38:13.218Z,15.90
2022-10-22T06:40:43.738Z,15.10
2022-10-22T06:43:26.069Z,13.80
2022-10-22T06:46:10.115Z,13.90
2022-10-22T06:48:56.163Z,14.30
2022-10-22T06:51:38.533Z,16.80
2022-10-22T06:54:07.873Z,17.60
2022-10-22T06:56:50.499Z,17.50
2022-10-22T06:59:19.463Z,17.20
2022-10-22T07:02:01.878Z,18.10
2022-10-22T07:04:44.332Z,18.20
2022-10-22T07:07:13.195Z,18.80
2022-10-22T07:09:45.631Z,20.00
2022-10-22T07:12:28.028Z,20.20
2022-10-22T07:14:56.921Z,19.30
2022-10-22T07:20:22.887Z,19.80
2022-10-22T07:23:05.394Z,20.80
2022-10-22T07:25:34.376Z,21.00
2022-10-22T07:28:17.650Z,22.70
2022-10-22T07:30:46.897Z,22.10
2022-10-22T07:33:16.314Z,23.00
2022-10-22T07:35:45.509Z,23.00
2022-10-22T07:38:14.489Z,20.50
2022-10-22T07:40:44.119Z,24.20
2022-10-22T07:43:27.341Z,25.30
2022-10-22T07:45:56.315Z,23.10
2022-10-22T07:48:25.739Z,27.70
2022-10-22T07:50:55.403Z,26.60
2022-10-22T07:53:24.980Z,27.90
2022-10-22T07:56:08.110Z,29.10
2022-10-22T07:58:51.009Z,28.10
2022-10-22T08:01:33.421Z,29.00
2022-10-22T08:04:15.999Z,26.80
2022-10-22T08:06:47.279Z,29.30
2022-10-22T08:09:17.582Z,29.60
2022-10-22T08:12:00.299Z,30.40
2022-10-22T08:14:29.204Z,32.50
2022-10-22T08:16:58.021Z,37.00
2022-10-22T08:19:28.981Z,34.60
2022-10-22T08:21:57.949Z,32.60
2022-10-22T08:24:27.409Z,33.80
2022-10-22T08:26:56.549Z,33.70
2022-10-22T08:29:27.043Z,35.10
2022-10-22T08:32:09.360Z,35.30
2022-10-22T08:34:51.942Z,36.90
2022-10-22T08:37:21.463Z,37.50
2022-10-22T08:39:50.886Z,40.10
2022-10-22T08:42:32.250Z,39.10
2022-10-22T08:45:37.860Z,35.30
2022-10-22T08:48:16.305Z,37.50
2022-10-22T08:50:52.025Z,36.40
2022-10-22T08:53:59.887Z,30.20
2022-10-22T08:59:36.677Z,32.30
2022-10-22T09:02:23.251Z,29.90
2022-10-22T09:05:12.370Z,30.30
2022-10-22T09:07:56.152Z,28.40
2022-10-22T09:10:43.889Z,27.80
2022-10-22T09:13:17.140Z,30.00
2022-10-22T09:15:53.235Z,27.40
2022-10-22T09:21:23.564Z,29.00
2022-10-22T09:24:48.906Z,29.00
2022-10-22T09:27:26.244Z,28.90
2022-10-22T09:30:18.152Z,29.10
2022-10-22T09:32:51.356Z,28.70
2022-10-22T09:35:24.824Z,28.60
2022-10-22T09:38:09.101Z,27.80
2022-10-22T09:40:47.574Z,26.40
2022-10-22T09:43:30.082Z,28.50
2022-10-22T09:46:01.898Z,27.80
2022-10-22T09:48:41.599Z,28.20
2022-10-22T09:51:48.114Z,32.00
2022-10-22T09:54:42.132Z,28.60
2022-10-22T09:57:26.788Z,29.40
2022-10-22T09:59:57.726Z,29.40
2022-10-22T10:02:38.804Z,27.90
2022-10-22T10:05:30.955Z,29.20
2022-10-22T10:08:16.688Z,29.90
2022-10-22T10:11:11.539Z,29.00
2022-10-22T10:13:53.127Z,30.20
2022-10-22T10:16:36.201Z,30.10
2022-10-22T10:20:00.035Z,32.90
2022-10-22T10:23:09.856Z,30.50
2022-10-22T10:25:56.201Z,32.30
2022-10-22T10:29:07.705Z,33.20
2022-10-22T10:31:57.057Z,29.90
2022-10-22T10:34:44.104Z,28.70
2022-10-22T10:37:37.304Z,32.20
2022-10-22T10:40:22.552Z,32.60
2022-10-22T10:43:07.259Z,34.00
2022-10-22T10:45:55.788Z,37.70
2022-10-22T10:49:03.377Z,36.70
2022-10-22T10:51:50.418Z,38.50
2022-10-22T10:54:45.666Z,38.10
2022-10-22T10:57:33.563Z,34.30
2022-10-22T11:00:06.420Z,35.10
2022-10-22T11:03:00.516Z,33.40
2022-10-22T11:08:38.188Z,35.00
2022-10-22T11:11:42.431Z,35.30
2022-10-22T11:14:31.197Z,30.50
2022-10-22T11:17:16.907Z,34.50
2022-10-22T11:20:06.302Z,34.80
2022-10-22T11:23:21.806Z,34.20
2022-10-22T11:25:51.645Z,34.30
2022-10-22T11:28:50.428Z,33.10
2022-10-22T11:31:33.412Z,33.80
2022-10-22T11:34:34.276Z,33.30
2022-10-22T11:37:06.675Z,30.50
2022-10-22T11:40:03.327Z,34.00
2022-10-22T11:42:35.174Z,35.30
2022-10-22T11:45:17.737Z,31.40
2022-10-22T11:48:09.296Z,33.20
2022-10-22T11:50:43.993Z,36.70
2022-10-22T11:53:13.027Z,36.00
2022-10-22T11:55:56.049Z,33.80
2022-10-22T11:58:40.125Z,34.40
2022-10-22T12:01:27.000Z,36.30
2022-10-22T12:04:18.879Z,32.20
2022-10-22T12:07:02.582Z,34.20
2022-10-22T12:09:34.113Z,33.20
2022-10-22T12:12:16.946Z,34.80
2022-10-22T12:15:00.081Z,33.10
2022-10-22T12:17:42.942Z,32.40
2022-10-22T12:20:26.644Z,33.70
2022-10-22T12:22:58.106Z,30.30
2022-10-22T12:25:40.500Z,32.20
2022-10-22T12:28:12.988Z,33.20
2022-10-22T12:30:42.705Z,30.60
2022-10-22T12:33:24.077Z,31.30
2022-10-22T12:35:57.777Z,30.00
2022-10-22T12:38:26.579Z,31.10
2022-10-22T12:41:10.776Z,27.80
2022-10-22T12:43:59.366Z,28.10
2022-10-22T12:46:31.127Z,28.10
2022-10-22T12:49:08.646Z,29.40
2022-10-22T12:51:37.895Z,29.60
2022-10-22T12:54:20.228Z,28.90
2022-10-22T12:56:50.947Z,29.10
2022-10-22T12:59:39.410Z,30.80
2022-10-22T13:02:29.543Z,33.80
2022-10-22T13:05:28.344Z,33.40
2022-10-22T13:08:18.147Z,32.90
2022-10-22T13:11:09.844Z,32.70
2022-10-22T13:14:02.596Z,31.50
2022-10-22T13:16:32.490Z,33.50
2022-10-22T13:19:38.963Z,30.90
2022-10-22T13:22:41.402Z,30.50
2022-10-22T13:25:25.391Z,27.20
2022-10-22T13:28:04.775Z,27.30
2022-10-22T13:30:39.501Z,25.20
2022-10-22T13:33:38.793Z,25.40
2022-10-22T13:36:13.580Z,25.50
2022-10-22T13:38:56.456Z,24.00
2022-10-22T13:44:22.149Z,22.60
2022-10-22T13:46:51.552Z,24.30
2022-10-22T13:49:33.986Z,23.00
2022-10-22T13:52:03.867Z,22.10
2022-10-22T13:54:32.770Z,21.80
2022-10-22T13:57:15.065Z,20.10
2022-10-22T13:59:57.357Z,20.60
2022-10-22T14:02:41.249Z,21.00
2022-10-22T14:05:24.044Z,19.60
2022-10-22T14:08:14.707Z,18.40
2022-10-22T14:10:57.073Z,19.40
2022-10-22T14:13:39.979Z,19.00
2022-10-22T14:16:26.023Z,20.30
2022-10-22T14:18:56.261Z,21.30
2022-10-22T14:21:25.165Z,20.90
2022-10-22T14:23:55.145Z,22.40
2022-10-22T14:26:37.540Z,22.50
2022-10-22T14:29:19.981Z,22.00
2022-10-22T14:32:02.378Z,23.40
2022-10-22T14:34:47.071Z,26.50
2022-10-22T14:37:29.373Z,24.40
2022-10-22T14:40:15.236Z,25.10
2022-10-22T14:42:57.547Z,26.10
2022-10-22T14:45:40.158Z,28.70
2022-10-22T14:48:08.805Z,26.10
2022-10-22T14:50:37.455Z,24.80
2022-10-22T14:53:06.248Z,24.80
2022-10-22T14:55:35.656Z,27.00
2022-10-22T14:58:04.984Z,27.40
2022-10-22T15:00:36.978Z,27.40
2022-10-22T15:03:05.802Z,28.10
2022-10-22T15:05:54.015Z,25.80
2022-10-22T15:08:22.866Z,25.80
2022-10-22T15:11:11.455Z,27.70
2022-10-22T15:13:53.776Z,28.80
2022-10-22T15:16:36.103Z,28.00
2022-10-22T15:19:18.427Z,28.40
2022-10-22T15:21:47.303Z,28.00
2022-10-22T15:24:16.757Z,27.60
2022-10-22T15:26:45.393Z,26.60
2022-10-22T15:29:27.860Z,25.80
2022-10-22T15:31:58.432Z,23.50
2022-10-22T15:34:41.508Z,27.20
2022-10-22T15:37:13.771Z,26.40
2022-10-22T15:39:43.092Z,25.00
2022-10-22T15:42:25.594Z,26.40
2022-10-22T15:45:09.207Z,25.70
2022-10-22T15:47:38.347Z,25.10
2022-10-22T15:50:08.194Z,25.20
2022-10-22T15:52:50.955Z,25.40
2022-10-22T15:55:20.310Z,24.80
2022-10-22T15:57:54.932Z,25.10
2022-10-22T16:00:37.306Z,27.60
2022-10-22T16:03:06.668Z,27.80
2022-10-22T16:05:35.388Z,26.00
2022-10-22T16:08:17.725Z,24.90
2022-10-22T16:10:48.768Z,25.40
2022-10-22T16:13:31.930Z,25.60
2022-10-22T16:16:06.795Z,24.90
2022-10-22T16:18:36.100Z,26.30
2022-10-22T16:21:20.008Z,27.00
2022-10-22T16:24:06.140Z,26.50
2022-10-22T16:26:36.549Z,26.00
2022-10-22T16:29:08.541Z,26.10
2022-10-22T16:31:37.473Z,27.30
2022-10-22T16:34:07.388Z,26.40
2022-10-22T16:36:49.922Z,24.60
2022-10-22T16:39:19.641Z,25.10
2022-10-22T16:41:48.653Z,25.70
2022-10-22T16:44:17.743Z,25.10
2022-10-22T16:46:47.216Z,25.60
2022-10-22T16:49:29.946Z,26.60
2022-10-22T16:52:12.394Z,25.90
2022-10-22T16:54:41.293Z,25.80
2022-10-22T16:57:23.805Z,26.80
2022-10-22T16:59:52.629Z,25.50
2022-10-22T17:02:21.513Z,26.70
2022-10-22T17:04:50.295Z,28.60
2022-10-22T17:07:19.283Z,28.00
2022-10-22T17:09:48.501Z,28.30
2022-10-22T17:12:17.505Z,28.80
2022-10-22T17:14:59.807Z,30.40
2022-10-22T17:17:29.150Z,31.10
2022-10-22T17:19:58.588Z,32.90
2022-10-22T17:22:41.447Z,32.10
2022-10-22T17:25:15.992Z,33.80
2022-10-22T17:27:46.008Z,36.10
2022-10-22T17:30:23.433Z,32.60
2022-10-22T17:33:09.842Z,32.00
2022-10-22T17:35:52.876Z,30.60
2022-10-22T17:38:35.697Z,31.50
2022-10-22T17:41:21.454Z,32.00
2022-10-22T17:44:09.472Z,31.80
2022-10-22T17:46:39.160Z,32.80
2022-10-22T17:49:21.382Z,32.80
2022-10-22T17:52:03.992Z,31.10
2022-10-22T17:54:49.437Z,34.40
2022-10-22T17:57:18.865Z,35.80
2022-10-22T17:59:47.605Z,35.10
2022-10-22T18:02:30.663Z,35.70
2022-10-22T18:04:59.696Z,38.50
2022-10-22T18:07:28.833Z,35.50
2022-10-22T18:09:57.944Z,35.40
2022-10-22T18:12:26.990Z,33.70
2022-10-22T18:15:09.878Z,34.00
2022-10-22T18:17:39.764Z,34.20
2022-10-22T18:20:09.958Z,34.90
2022-10-22T18:22:55.627Z,32.60
2022-10-22T18:25:24.758Z,34.60
2022-10-22T18:27:53.669Z,32.80
2022-10-22T18:30:41.218Z,35.60
2022-10-22T18:33:13.601Z,33.90
2022-10-22T18:35:57.235Z,35.30
2022-10-22T18:38:26.316Z,34.70
2022-10-22T18:41:13.705Z,34.00
2022-10-22T18:43:42.705Z,34.00
2022-10-22T18:46:12.151Z,33.70
2022-10-22T18:48:59.565Z,33.70
2022-10-22T18:51:34.802Z,31.50
2022-10-22T18:54:24.901Z,31.50
2022-10-22T18:57:00.475Z,32.00
2022-10-22T18:59:31.390Z,31.20
2022-10-22T19:02:00.783Z,30.20
2022-10-22T19:04:37.107Z,28.10
2022-10-22T19:09:37.010Z,31.60
2022-10-22T19:12:06.506Z,31.60
2022-10-22T19:14:36.615Z,28.60
2022-10-22T19:17:05.618Z,27.80
2022-10-22T19:19:35.136Z,27.60
2022-10-22T19:22:05.040Z,27.70
2022-10-22T19:24:34.804Z,25.90
2022-10-22T19:27:04.112Z,27.20
2022-10-22T19:29:33.235Z,26.90
2022-10-22T19:32:17.852Z,27.20
2022-10-22T19:34:47.666Z,28.00
2022-10-22T19:37:30.254Z,25.30
2022-10-22T19:39:59.182Z,26.20
2022-10-22T19:42:28.795Z,25.40
2022-10-22T19:44:58.554Z,25.20
2022-10-22T19:47:28.270Z,26.00
2022-10-22T19:49:57.340Z,26.80
2022-10-22T19:52:40.136Z,25.50
2022-10-22T19:55:22.919Z,24.90
2022-10-22T19:58:05.573Z,26.30
2022-10-22T20:00:35.931Z,25.90
2022-10-22T20:03:20.308Z,25.10
2022-10-22T20:05:51.535Z,25.80
2022-10-22T20:08:20.539Z,25.90
2022-10-22T20:10:50.261Z,26.90
2022-10-22T20:13:33.550Z,26.60
2022-10-22T20:16:18.188Z,26.40
2022-10-22T20:18:47.037Z,27.50
2022-10-22T20:21:19.773Z,29.10
2022-10-22T20:24:02.305Z,26.20
2022-10-22T20:26:46.519Z,26.60
2022-10-22T20:29:19.187Z,25.20
2022-10-22T20:31:48.612Z,26.00
2022-10-22T20:34:17.411Z,25.60
2022-10-22T20:36:47.834Z,26.40
2022-10-22T20:39:30.185Z,25.00
2022-10-22T20:42:12.963Z,26.20
2022-10-22T20:44:41.774Z,26.80
2022-10-22T20:47:30.448Z,26.30
2022-10-22T20:50:11.372Z,27.10
2022-10-22T20:52:40.449Z,25.80
2022-10-22T20:55:22.882Z,27.20
2022-10-22T20:58:05.439Z,27.20
2022-10-22T21:00:48.876Z,25.80
2022-10-22T21:03:17.932Z,25.20
2022-10-22T21:06:00.748Z,26.70
2022-10-22T21:08:29.884Z,25.70
2022-10-22T21:11:12.457Z,25.90
2022-10-22T21:13:41.705Z,26.10
2022-10-22T21:16:13.131Z,25.10
2022-10-22T21:18:55.756Z,25.60
2022-10-22T21:21:38.158Z,26.10
2022-10-22T21:24:07.598Z,25.20
2022-10-22T21:26:41.279Z,26.60
2022-10-22T21:29:12.753Z,24.70
2022-10-22T21:31:55.374Z,22.40
2022-10-22T21:34:26.337Z,23.40
2022-10-22T21:36:55.398Z,23.90
2022-10-22T21:39:41.246Z,24.40
2022-10-22T21:42:24.801Z,22.30
2022-10-22T21:44:53.943Z,23.10
2022-10-22T21:47:36.466Z,22.30
2022-10-22T21:50:19.535Z,22.50
2022-10-22T21:55:45.407Z,22.60
2022-10-22T21:58:27.900Z,24.10
2022-10-22T22:00:58.969Z,24.30
2022-10-22T22:03:43.809Z,24.60
2022-10-22T22:06:13.468Z,25.30
2022-10-22T22:08:56.502Z,25.60
2022-10-22T22:11:39.156Z,24.50
2022-10-22T22:14:21.632Z,25.20
2022-10-22T22:16:50.749Z,25.30
2022-10-22T22:19:33.433Z,25.30
2022-10-22T22:22:16.046Z,26.50
2022-10-22T22:24:58.401Z,25.50
2022-10-22T22:27:41.147Z,26.20
2022-10-22T22:30:23.965Z,25.90
2022-10-22T22:33:06.797Z,24.40
2022-10-22T22:38:07.271Z,24.90
2022-10-22T22:40:49.853Z,25.60
2022-10-22T22:43:19.233Z,25.20
2022-10-22T22:46:06.347Z,25.10
2022-10-22T22:48:50.009Z,26.90
2022-10-22T22:51:32.837Z,27.00
2022-10-22T22:54:15.424Z,26.80
2022-10-22T22:56:44.671Z,25.20
2022-10-22T22:59:27.281Z,25.70
2022-10-22T23:02:10.514Z,25.70
2022-10-22T23:04:53.033Z,28.10
2022-10-22T23:07:35.434Z,28.50
2022-10-22T23:10:18.019Z,28.80
2022-10-22T23:13:00.613Z,30.30
2022-10-22T23:15:43.042Z,28.10
2022-10-22T23:18:26.396Z,28.00
2022-10-22T23:20:55.328Z,28.00
2022-10-22T23:23:24.427Z,26.90
2022-10-22T23:26:06.956Z,26.70
2022-10-22T23:28:50.312Z,27.20
2022-10-22T23:31:21.876Z,26.90
2022-10-22T23:34:07.239Z,28.50
2022-10-22T23:36:51.130Z,25.50
2022-10-22T23:39:22.873Z,26.80
2022-10-22T23:41:53.889Z,27.70
2022-10-22T23:44:23.353Z,27.50
2022-10-22T23:46:52.391Z,26.70
2022-10-22T23:49:34.859Z,27.40
2022-10-22T23:52:17.257Z,27.50
2022-10-22T23:54:59.677Z,27.40
2022-10-22T23:57:28.745Z,26.00
2022-10-22T23:59:57.853Z,26.10
